Norfolk — WDG2147 — position and weather

sailwx.info

Track history (hours):
 
Tides and Currents Weather Stations Pressure Air Temp Water Temp Dewpoint Dewpoint Depression Visibility Wind Speed Wind Dir Waves Ship Positions

Norfolk

Owner: Virginia Pilot Boat Corporation, Virginia Beach, VA. More information available from US FCC via Universal Licensing System and Coast Guard Vessel Documentation Center.

Last reported at 2016-May-02 10:31 UTC. Time now 2016-May-03 14:25 UTC.
Position N 36°55' W 076°05'.

Length 18 m; draft 1.5 m.

Type: Pilot. MMSI: 367512630.

Date/timePositionNaut miles runAvg speedWind from/ knotsBaromVisibWave heightAir tempDewpointWater temp
2016-May-02 10:31N 36°55' W 076°05'1 0.5
2016-May-02 09:15N 36°54' W 076°05'2 3.0
2016-May-02 08:29N 36°57' W 076°05'2 0.2
2016-May-01 19:14N 36°54' W 076°05'2 2.7
2016-May-01 18:33N 36°56' W 076°04'2 0.4
2016-May-01 13:20N 36°54' W 076°05'2 2.3
2016-May-01 12:30N 36°56' W 076°04'2 0.4
2016-May-01 08:05N 36°54' W 076°05'0 0.0
2016-Apr-30 21:23N 36°54' W 076°05'2 2.1
2016-Apr-30 20:32N 36°56' W 076°04'2 1.4
2016-Apr-30 19:13N 36°54' W 076°05'4 5.4
2016-Apr-30 18:30N 36°56' W 076°01'4 0.7
2016-Apr-30 13:31N 36°54' W 076°05'1 1.5
2016-Apr-30 12:33N 36°56' W 076°04'2 0.9
2016-Apr-30 10:33N 36°56' W 076°02'3 1.3
2016-Apr-30 08:04N 36°54' W 076°05'0 0.5
2016-Apr-30 07:18N 36°55' W 076°05'0 0.0
2016-Apr-29 21:30N 36°54' W 076°05'2 1.9
2016-Apr-29 20:32N 36°56' W 076°04'2 1.6
2016-Apr-29 19:33N 36°55' W 076°05'3 2.7
2016-Apr-29 18:33N 36°56' W 076°02'0 0.5
2016-Apr-29 17:29N 36°56' W 076°02'4 3.8
2016-Apr-29 16:29N 37°00' W 076°02'6 6.9
2016-Apr-29 15:33N 36°54' W 076°05'0 0.0
2016-Apr-29 14:32N 36°54' W 076°05'1 0.2
2016-Apr-29 11:21N 36°55' W 076°05'3 4.0
2016-Apr-29 10:33N 36°57' W 076°02'4 0.9
2016-Apr-29 06:33N 36°54' W 076°05'0 0.0
2016-Apr-28 19:31N 36°54' W 076°05'3 3.5
2016-Apr-28 18:33N 36°56' W 076°02'3 1.0
2016-Apr-28 15:06N 36°54' W 076°05'4 6.1
2016-Apr-28 14:28N 36°56' W 076°01'4 3.9
2016-Apr-28 13:33N 36°56' W 075°57'7 1.7
2016-Apr-28 09:16N 36°54' W 076°05'2 0.8
2016-Apr-28 07:15N 36°56' W 076°04'7 1.0
2016-Apr-28 00:25N 36°56' W 075°56'5 0.4
2016-Apr-27 13:33N 36°56' W 076°02'3 0.7
2016-Apr-27 08:30N 36°54' W 076°05'0 0.0
2016-Apr-26 19:34N 36°54' W 076°05'1 0.0
2016-Apr-25 12:29N 36°55' W 076°05'1 0.2
2016-Apr-25 09:14N 36°54' W 076°06'1 1.8
2016-Apr-25 08:33N 36°56' W 076°05'7 0.8
2016-Apr-24 23:26N 36°56' W 075°56'7 7.3
2016-Apr-24 22:25N 36°54' W 076°05'4 4.6
2016-Apr-24 21:33N 36°56' W 076°01'1 0.7
2016-Apr-24 20:33N 36°57' W 076°02'4 1.8
2016-Apr-24 18:33N 36°54' W 076°06'3 1.3
2016-Apr-24 16:33N 36°57' W 076°04'6 5.6
2016-Apr-24 15:26N 36°55' W 075°56'6 6.4
2016-Apr-24 14:33N 36°56' W 076°03'2 2.1
2016-Apr-24 13:31N 36°54' W 076°05'0 0.0
2016-Apr-24 12:33N 36°54' W 076°05'0 0.0
2016-Apr-24 11:32N 36°54' W 076°05'0 0.0
2016-Apr-24 10:33N 36°54' W 076°05'0 0.0
2016-Apr-24 08:31N 36°54' W 076°05'0 0.0
2016-Apr-23 23:29N 36°54' W 076°05'0 0.0
2016-Apr-23 22:32N 36°54' W 076°05'0 0.0
2016-Apr-23 21:26N 36°54' W 076°05'0 0.0
2016-Apr-23 20:32N 36°54' W 076°05'0 0.0
2016-Apr-23 19:33N 36°54' W 076°05'0 0.0
2016-Apr-23 18:33N 36°54' W 076°05'0 0.0
2016-Apr-23 17:28N 36°54' W 076°05'0 0.0
2016-Apr-23 16:33N 36°54' W 076°05'0 0.0
2016-Apr-23 15:33N 36°54' W 076°05'5 4.6
2016-Apr-23 14:33N 36°57' W 076°01'2 2.0
2016-Apr-23 13:33N 36°56' W 076°03'1 1.0
2016-Apr-23 12:33N 36°56' W 076°04'0 0.1
2016-Apr-23 11:33N 36°56' W 076°04'2 2.2
2016-Apr-23 10:29N 36°56' W 076°01'4 1.4
2016-Apr-23 07:27N 36°54' W 076°05'0 0.0
2016-Apr-22 18:32N 36°54' W 076°05'0 0.0
2016-Apr-22 17:33N 36°54' W 076°05'0 0.0
2016-Apr-22 16:33N 36°54' W 076°05'0 0.0
2016-Apr-22 15:33N 36°54' W 076°05'0 0.0
2016-Apr-22 13:03N 36°54' W 076°05'815.4
2016-Apr-22 12:32N 36°55' W 075°55'8 4.1
2016-Apr-22 10:33N 36°54' W 076°05'  
Track history (hours):
 
Tides and Currents Weather Stations Pressure Air Temp Water Temp Dewpoint Dewpoint Depression Visibility Wind Speed Wind Dir Waves Ship Positions

Norfolk

Owner: Virginia Pilot Boat Corporation, Virginia Beach, VA. More information available from US FCC via Universal Licensing System and Coast Guard Vessel Documentation Center.

Last reported at 2016-May-02 10:31 UTC. Time now 2016-May-03 14:25 UTC.
Position N 36°55' W 076°05'.

Length 18 m; draft 1.5 m.

Type: Pilot. MMSI: 367512630.

Date/timePositionNaut miles runAvg speedWind from/ knotsBaromVisibWave heightAir tempDewpointWater temp
2016-May-02 10:31N 36°55' W 076°05'1 0.5
2016-May-02 09:15N 36°54' W 076°05'2 3.0
2016-May-02 08:29N 36°57' W 076°05'2 0.2
2016-May-01 19:14N 36°54' W 076°05'2 2.7
2016-May-01 18:33N 36°56' W 076°04'2 0.4
2016-May-01 13:20N 36°54' W 076°05'2 2.3
2016-May-01 12:30N 36°56' W 076°04'2 0.4
2016-May-01 08:05N 36°54' W 076°05'0 0.0
2016-Apr-30 21:23N 36°54' W 076°05'2 2.1
2016-Apr-30 20:32N 36°56' W 076°04'2 1.4
2016-Apr-30 19:13N 36°54' W 076°05'4 5.4
2016-Apr-30 18:30N 36°56' W 076°01'4 0.7
2016-Apr-30 13:31N 36°54' W 076°05'1 1.5
2016-Apr-30 12:33N 36°56' W 076°04'2 0.9
2016-Apr-30 10:33N 36°56' W 076°02'3 1.3
2016-Apr-30 08:04N 36°54' W 076°05'0 0.5
2016-Apr-30 07:18N 36°55' W 076°05'0 0.0
2016-Apr-29 21:30N 36°54' W 076°05'2 1.9
2016-Apr-29 20:32N 36°56' W 076°04'2 1.6
2016-Apr-29 19:33N 36°55' W 076°05'3 2.7
2016-Apr-29 18:33N 36°56' W 076°02'0 0.5
2016-Apr-29 17:29N 36°56' W 076°02'4 3.8
2016-Apr-29 16:29N 37°00' W 076°02'6 6.9
2016-Apr-29 15:33N 36°54' W 076°05'0 0.0
2016-Apr-29 14:32N 36°54' W 076°05'1 0.2
2016-Apr-29 11:21N 36°55' W 076°05'3 4.0
2016-Apr-29 10:33N 36°57' W 076°02'4 0.9
2016-Apr-29 06:33N 36°54' W 076°05'0 0.0
2016-Apr-28 19:31N 36°54' W 076°05'3 3.5
2016-Apr-28 18:33N 36°56' W 076°02'3 1.0
2016-Apr-28 15:06N 36°54' W 076°05'4 6.1
2016-Apr-28 14:28N 36°56' W 076°01'4 3.9
2016-Apr-28 13:33N 36°56' W 075°57'7 1.7
2016-Apr-28 09:16N 36°54' W 076°05'2 0.8
2016-Apr-28 07:15N 36°56' W 076°04'7 1.0
2016-Apr-28 00:25N 36°56' W 075°56'5 0.4
2016-Apr-27 13:33N 36°56' W 076°02'3 0.7
2016-Apr-27 08:30N 36°54' W 076°05'0 0.0
2016-Apr-26 19:34N 36°54' W 076°05'1 0.0
2016-Apr-25 12:29N 36°55' W 076°05'1 0.2
2016-Apr-25 09:14N 36°54' W 076°06'1 1.8
2016-Apr-25 08:33N 36°56' W 076°05'7 0.8
2016-Apr-24 23:26N 36°56' W 075°56'7 7.3
2016-Apr-24 22:25N 36°54' W 076°05'4 4.6
2016-Apr-24 21:33N 36°56' W 076°01'1 0.7
2016-Apr-24 20:33N 36°57' W 076°02'4 1.8
2016-Apr-24 18:33N 36°54' W 076°06'3 1.3
2016-Apr-24 16:33N 36°57' W 076°04'6 5.6
2016-Apr-24 15:26N 36°55' W 075°56'6 6.4
2016-Apr-24 14:33N 36°56' W 076°03'2 2.1
2016-Apr-24 13:31N 36°54' W 076°05'0 0.0
2016-Apr-24 12:33N 36°54' W 076°05'0 0.0
2016-Apr-24 11:32N 36°54' W 076°05'0 0.0
2016-Apr-24 10:33N 36°54' W 076°05'0 0.0
2016-Apr-24 08:31N 36°54' W 076°05'0 0.0
2016-Apr-23 23:29N 36°54' W 076°05'0 0.0
2016-Apr-23 22:32N 36°54' W 076°05'0 0.0
2016-Apr-23 21:26N 36°54' W 076°05'0 0.0
2016-Apr-23 20:32N 36°54' W 076°05'0 0.0
2016-Apr-23 19:33N 36°54' W 076°05'0 0.0
2016-Apr-23 18:33N 36°54' W 076°05'0 0.0
2016-Apr-23 17:28N 36°54' W 076°05'0 0.0
2016-Apr-23 16:33N 36°54' W 076°05'0 0.0
2016-Apr-23 15:33N 36°54' W 076°05'5 4.6
2016-Apr-23 14:33N 36°57' W 076°01'2 2.0
2016-Apr-23 13:33N 36°56' W 076°03'1 1.0
2016-Apr-23 12:33N 36°56' W 076°04'0 0.1
2016-Apr-23 11:33N 36°56' W 076°04'2 2.2
2016-Apr-23 10:29N 36°56' W 076°01'4 1.4
2016-Apr-23 07:27N 36°54' W 076°05'0 0.0
2016-Apr-22 18:32N 36°54' W 076°05'0 0.0
2016-Apr-22 17:33N 36°54' W 076°05'0 0.0
2016-Apr-22 16:33N 36°54' W 076°05'0 0.0
2016-Apr-22 15:33N 36°54' W 076°05'0 0.0
2016-Apr-22 13:03N 36°54' W 076°05'815.4
2016-Apr-22 12:32N 36°55' W 075°55'8 4.1
2016-Apr-22 10:33N 36°54' W 076°05'  

Dump ship's entire track history